sensor_id;sensor_type;location;lat;lon;timestamp;pressure;altitude;pressure_sealevel;temperature;humidity
78717;BME280;68045;50.042;14.432;2023-12-29T00:02:50;98233.09;;;10.76;62.17
78717;BME280;68045;50.042;14.432;2023-12-29T00:06:52;98233.59;;;10.72;62.14
78717;BME280;68045;50.042;14.432;2023-12-29T00:10:53;98228.31;;;10.61;62.07
78717;BME280;68045;50.042;14.432;2023-12-29T00:14:55;98236.94;;;10.44;62.92
78717;BME280;68045;50.042;14.432;2023-12-29T00:18:56;98228.31;;;10.37;63.89
78717;BME280;68045;50.042;14.432;2023-12-29T00:22:57;98233.94;;;10.29;63.53
78717;BME280;68045;50.042;14.432;2023-12-29T00:26:59;98222.47;;;10.24;64.20
78717;BME280;68045;50.042;14.432;2023-12-29T00:31:00;98235.63;;;10.35;64.36
78717;BME280;68045;50.042;14.432;2023-12-29T00:35:03;98236.69;;;10.46;63.82
78717;BME280;68045;50.042;14.432;2023-12-29T00:39:04;98225.78;;;10.42;63.95
78717;BME280;68045;50.042;14.432;2023-12-29T00:43:05;98234.72;;;10.41;63.76
78717;BME280;68045;50.042;14.432;2023-12-29T00:47:06;98229.44;;;10.77;63.67
78717;BME280;68045;50.042;14.432;2023-12-29T00:51:07;98231.38;;;10.81;62.99
78717;BME280;68045;50.042;14.432;2023-12-29T00:55:09;98218.84;;;10.88;62.91
78717;BME280;68045;50.042;14.432;2023-12-29T00:59:10;98231.50;;;10.86;62.91
78717;BME280;68045;50.042;14.432;2023-12-29T01:03:12;98237.22;;;10.83;63.40
78717;BME280;68045;50.042;14.432;2023-12-29T01:07:13;98219.66;;;10.89;63.36
78717;BME280;68045;50.042;14.432;2023-12-29T01:11:14;98227.69;;;10.82;64.16
78717;BME280;68045;50.042;14.432;2023-12-29T01:15:15;98229.41;;;11.00;63.62
78717;BME280;68045;50.042;14.432;2023-12-29T01:19:16;98228.56;;;11.11;63.31
78717;BME280;68045;50.042;14.432;2023-12-29T01:23:17;98230.78;;;11.03;63.41
78717;BME280;68045;50.042;14.432;2023-12-29T01:27:18;98233.94;;;11.16;63.87
78717;BME280;68045;50.042;14.432;2023-12-29T01:31:19;98240.22;;;11.27;63.99
78717;BME280;68045;50.042;14.432;2023-12-29T01:35:21;98244.38;;;11.23;63.23
78717;BME280;68045;50.042;14.432;2023-12-29T01:39:22;98236.63;;;11.33;63.78
78717;BME280;68045;50.042;14.432;2023-12-29T01:43:23;98239.78;;;11.18;64.66
78717;BME280;68045;50.042;14.432;2023-12-29T01:47:24;98228.78;;;11.21;64.39
78717;BME280;68045;50.042;14.432;2023-12-29T01:51:26;98245.75;;;11.25;64.70
78717;BME280;68045;50.042;14.432;2023-12-29T01:55:27;98238.44;;;11.04;65.02
78717;BME280;68045;50.042;14.432;2023-12-29T01:59:29;98232.34;;;11.15;65.25
78717;BME280;68045;50.042;14.432;2023-12-29T02:03:30;98225.50;;;11.03;65.61
78717;BME280;68045;50.042;14.432;2023-12-29T02:07:31;98207.44;;;11.11;65.30
78717;BME280;68045;50.042;14.432;2023-12-29T02:11:33;98213.78;;;10.98;66.10
78717;BME280;68045;50.042;14.432;2023-12-29T02:15:33;98206.66;;;10.99;66.49
78717;BME280;68045;50.042;14.432;2023-12-29T02:19:40;98194.84;;;10.90;66.77
78717;BME280;68045;50.042;14.432;2023-12-29T02:23:41;98187.19;;;10.77;66.48
78717;BME280;68045;50.042;14.432;2023-12-29T02:32:11;98169.19;;;10.62;68.17
78717;BME280;68045;50.042;14.432;2023-12-29T02:36:15;98172.56;;;10.57;67.76
78717;BME280;68045;50.042;14.432;2023-12-29T02:40:17;98174.03;;;10.65;67.17
78717;BME280;68045;50.042;14.432;2023-12-29T02:44:18;98151.66;;;10.56;68.08
78717;BME280;68045;50.042;14.432;2023-12-29T02:48:21;98144.41;;;10.63;67.58
78717;BME280;68045;50.042;14.432;2023-12-29T02:52:23;98144.53;;;10.68;66.71
78717;BME280;68045;50.042;14.432;2023-12-29T02:56:26;98145.56;;;10.55;67.99
78717;BME280;68045;50.042;14.432;2023-12-29T03:00:27;98174.25;;;10.63;67.68
78717;BME280;68045;50.042;14.432;2023-12-29T03:04:28;98166.00;;;10.71;67.57
78717;BME280;68045;50.042;14.432;2023-12-29T03:08:29;98162.25;;;10.84;66.36
78717;BME280;68045;50.042;14.432;2023-12-29T03:12:32;98158.81;;;10.84;66.28
78717;BME280;68045;50.042;14.432;2023-12-29T03:16:33;98142.00;;;11.02;66.27
78717;BME280;68045;50.042;14.432;2023-12-29T03:20:33;98139.03;;;10.98;65.46
78717;BME280;68045;50.042;14.432;2023-12-29T03:24:34;98146.41;;;10.84;66.10
78717;BME280;68045;50.042;14.432;2023-12-29T03:28:36;98144.88;;;10.71;66.23
78717;BME280;68045;50.042;14.432;2023-12-29T03:32:37;98131.22;;;10.63;66.09
78717;BME280;68045;50.042;14.432;2023-12-29T03:36:38;98120.75;;;10.68;66.19
78717;BME280;68045;50.042;14.432;2023-12-29T03:40:39;98103.88;;;10.69;66.72
78717;BME280;68045;50.042;14.432;2023-12-29T03:44:41;98105.91;;;10.50;66.35
78717;BME280;68045;50.042;14.432;2023-12-29T03:48:42;98112.41;;;10.59;66.61
78717;BME280;68045;50.042;14.432;2023-12-29T03:52:43;98107.28;;;10.53;66.47
78717;BME280;68045;50.042;14.432;2023-12-29T03:56:44;98107.53;;;10.39;66.80
78717;BME280;68045;50.042;14.432;2023-12-29T04:00:46;98106.97;;;10.37;66.63
78717;BME280;68045;50.042;14.432;2023-12-29T04:04:47;98086.53;;;10.44;66.87
78717;BME280;68045;50.042;14.432;2023-12-29T04:08:48;98098.34;;;10.42;66.36
78717;BME280;68045;50.042;14.432;2023-12-29T04:12:49;98093.16;;;10.47;66.09
78717;BME280;68045;50.042;14.432;2023-12-29T04:16:51;98103.59;;;10.54;66.22
78717;BME280;68045;50.042;14.432;2023-12-29T04:20:52;98080.75;;;10.59;65.79
78717;BME280;68045;50.042;14.432;2023-12-29T04:24:53;98054.34;;;10.59;66.14
78717;BME280;68045;50.042;14.432;2023-12-29T04:28:54;98044.38;;;10.50;65.37
78717;BME280;68045;50.042;14.432;2023-12-29T04:32:55;98037.09;;;10.40;65.98
78717;BME280;68045;50.042;14.432;2023-12-29T04:36:56;98025.13;;;10.49;65.95
78717;BME280;68045;50.042;14.432;2023-12-29T04:40:57;98037.19;;;10.45;66.00
78717;BME280;68045;50.042;14.432;2023-12-29T04:44:58;98016.13;;;10.62;65.33
78717;BME280;68045;50.042;14.432;2023-12-29T04:48:59;98019.66;;;10.67;65.36
78717;BME280;68045;50.042;14.432;2023-12-29T04:53:02;98008.75;;;10.64;65.15
78717;BME280;68045;50.042;14.432;2023-12-29T04:57:03;97999.22;;;10.75;65.73
78717;BME280;68045;50.042;14.432;2023-12-29T05:01:04;97997.06;;;10.71;64.97
78717;BME280;68045;50.042;14.432;2023-12-29T05:05:05;98000.16;;;10.85;64.27
78717;BME280;68045;50.042;14.432;2023-12-29T05:09:06;98028.75;;;10.88;64.15
78717;BME280;68045;50.042;14.432;2023-12-29T05:13:08;98009.97;;;11.02;63.67
78717;BME280;68045;50.042;14.432;2023-12-29T05:17:09;98029.84;;;11.21;63.57
78717;BME280;68045;50.042;14.432;2023-12-29T05:21:16;97999.31;;;11.13;63.65
78717;BME280;68045;50.042;14.432;2023-12-29T05:25:19;98018.69;;;11.19;63.45
78717;BME280;68045;50.042;14.432;2023-12-29T05:29:22;98023.56;;;11.10;62.69
78717;BME280;68045;50.042;14.432;2023-12-29T05:33:24;98015.09;;;11.25;62.48
78717;BME280;68045;50.042;14.432;2023-12-29T05:37:25;98028.25;;;11.37;62.72
78717;BME280;68045;50.042;14.432;2023-12-29T05:41:26;98032.72;;;11.36;62.14
78717;BME280;68045;50.042;14.432;2023-12-29T05:45:27;98022.31;;;11.30;62.30
78717;BME280;68045;50.042;14.432;2023-12-29T05:49:28;98012.47;;;11.25;61.49
78717;BME280;68045;50.042;14.432;2023-12-29T05:53:29;98042.41;;;11.14;62.75
78717;BME280;68045;50.042;14.432;2023-12-29T05:57:32;98023.75;;;11.37;61.88
78717;BME280;68045;50.042;14.432;2023-12-29T06:01:33;97998.38;;;11.36;62.24
78717;BME280;68045;50.042;14.432;2023-12-29T06:05:34;98010.28;;;11.39;62.42
78717;BME280;68045;50.042;14.432;2023-12-29T06:09:36;97998.94;;;11.38;62.34
78717;BME280;68045;50.042;14.432;2023-12-29T06:13:37;98046.31;;;11.62;60.96
78717;BME280;68045;50.042;14.432;2023-12-29T06:17:39;98033.50;;;11.53;61.07
78717;BME280;68045;50.042;14.432;2023-12-29T06:21:42;98017.41;;;11.38;61.64
78717;BME280;68045;50.042;14.432;2023-12-29T06:25:46;98010.69;;;11.31;61.44
78717;BME280;68045;50.042;14.432;2023-12-29T06:29:47;98004.47;;;11.37;61.05
78717;BME280;68045;50.042;14.432;2023-12-29T06:33:48;98004.28;;;11.26;61.56
78717;BME280;68045;50.042;14.432;2023-12-29T06:37:49;97992.44;;;11.12;61.66
78717;BME280;68045;50.042;14.432;2023-12-29T06:41:49;98020.69;;;11.12;62.27
78717;BME280;68045;50.042;14.432;2023-12-29T06:45:50;98022.22;;;11.24;61.62
78717;BME280;68045;50.042;14.432;2023-12-29T06:49:54;97999.31;;;11.13;62.24
78717;BME280;68045;50.042;14.432;2023-12-29T06:54:02;98076.34;;;11.22;61.50
78717;BME280;68045;50.042;14.432;2023-12-29T06:58:06;98040.41;;;11.21;62.18
78717;BME280;68045;50.042;14.432;2023-12-29T07:02:07;98028.84;;;11.27;61.61
78717;BME280;68045;50.042;14.432;2023-12-29T07:06:11;98096.25;;;11.13;62.21
78717;BME280;68045;50.042;14.432;2023-12-29T07:10:13;98050.63;;;11.34;61.18
78717;BME280;68045;50.042;14.432;2023-12-29T07:14:14;98019.81;;;11.40;60.75
78717;BME280;68045;50.042;14.432;2023-12-29T07:18:15;98095.41;;;11.41;60.36
78717;BME280;68045;50.042;14.432;2023-12-29T07:22:16;98033.25;;;11.55;60.04
78717;BME280;68045;50.042;14.432;2023-12-29T07:26:17;98030.06;;;11.53;59.85
78717;BME280;68045;50.042;14.432;2023-12-29T07:30:18;98076.84;;;11.52;60.16
78717;BME280;68045;50.042;14.432;2023-12-29T07:34:20;98048.50;;;11.65;59.53
78717;BME280;68045;50.042;14.432;2023-12-29T07:38:23;98047.44;;;11.66;59.53
78717;BME280;68045;50.042;14.432;2023-12-29T07:42:25;98072.59;;;11.51;59.83
78717;BME280;68045;50.042;14.432;2023-12-29T07:46:26;98044.72;;;11.61;58.68
78717;BME280;68045;50.042;14.432;2023-12-29T07:50:27;98040.56;;;11.65;58.83
78717;BME280;68045;50.042;14.432;2023-12-29T07:54:28;98051.53;;;11.57;58.48
78717;BME280;68045;50.042;14.432;2023-12-29T07:58:29;98048.69;;;11.80;58.23
78717;BME280;68045;50.042;14.432;2023-12-29T08:02:36;98079.09;;;11.44;58.92
78717;BME280;68045;50.042;14.432;2023-12-29T08:06:37;98079.66;;;11.29;59.69
78717;BME280;68045;50.042;14.432;2023-12-29T08:10:39;98076.97;;;11.12;60.45
78717;BME280;68045;50.042;14.432;2023-12-29T08:14:42;98048.78;;;11.18;59.44
78717;BME280;68045;50.042;14.432;2023-12-29T08:18:45;98092.38;;;11.32;58.82
78717;BME280;68045;50.042;14.432;2023-12-29T08:22:46;98087.22;;;11.25;59.04
78717;BME280;68045;50.042;14.432;2023-12-29T08:26:47;98088.22;;;11.53;58.34
78717;BME280;68045;50.042;14.432;2023-12-29T08:30:49;98131.38;;;11.75;56.65
78717;BME280;68045;50.042;14.432;2023-12-29T08:34:51;98117.38;;;11.75;56.71
78717;BME280;68045;50.042;14.432;2023-12-29T08:38:52;98128.69;;;11.87;55.88
78717;BME280;68045;50.042;14.432;2023-12-29T08:42:55;98145.25;;;12.16;55.48
78717;BME280;68045;50.042;14.432;2023-12-29T08:46:56;98146.28;;;12.32;55.21
78717;BME280;68045;50.042;14.432;2023-12-29T08:50:57;98171.31;;;12.63;54.21
78717;BME280;68045;50.042;14.432;2023-12-29T08:54:58;98163.75;;;12.72;54.46
78717;BME280;68045;50.042;14.432;2023-12-29T08:59:00;98154.19;;;12.49;54.89
78717;BME280;68045;50.042;14.432;2023-12-29T09:03:01;98166.09;;;12.90;54.42
78717;BME280;68045;50.042;14.432;2023-12-29T09:07:02;98153.50;;;12.58;54.80
78717;BME280;68045;50.042;14.432;2023-12-29T09:11:06;98155.09;;;12.59;54.50
78717;BME280;68045;50.042;14.432;2023-12-29T09:15:07;98155.72;;;12.88;53.83
78717;BME280;68045;50.042;14.432;2023-12-29T09:19:08;98154.28;;;13.25;52.64
78717;BME280;68045;50.042;14.432;2023-12-29T09:23:09;98163.91;;;13.31;51.78
78717;BME280;68045;50.042;14.432;2023-12-29T09:27:11;98159.78;;;13.40;51.36
78717;BME280;68045;50.042;14.432;2023-12-29T09:31:12;98136.22;;;13.76;50.13
78717;BME280;68045;50.042;14.432;2023-12-29T09:35:14;98155.53;;;14.08;49.66
78717;BME280;68045;50.042;14.432;2023-12-29T09:39:15;98153.81;;;14.71;48.03
78717;BME280;68045;50.042;14.432;2023-12-29T09:43:18;98159.88;;;14.62;47.92
78717;BME280;68045;50.042;14.432;2023-12-29T09:47:22;98138.28;;;15.10;47.10
78717;BME280;68045;50.042;14.432;2023-12-29T09:51:27;98156.66;;;15.22;46.61
78717;BME280;68045;50.042;14.432;2023-12-29T09:55:28;98141.53;;;15.38;46.72
78717;BME280;68045;50.042;14.432;2023-12-29T09:59:30;98157.03;;;15.72;45.71
78717;BME280;68045;50.042;14.432;2023-12-29T10:03:33;98131.97;;;15.98;45.30
78717;BME280;68045;50.042;14.432;2023-12-29T10:07:36;98144.88;;;16.66;43.07
78717;BME280;68045;50.042;14.432;2023-12-29T10:11:44;98180.53;;;16.90;42.46
78717;BME280;68045;50.042;14.432;2023-12-29T10:16:13;98178.84;;;16.14;44.04
78717;BME280;68045;50.042;14.432;2023-12-29T10:20:27;98159.81;;;16.67;42.75
78717;BME280;68045;50.042;14.432;2023-12-29T10:24:32;98123.84;;;17.63;40.60
78717;BME280;68045;50.042;14.432;2023-12-29T10:28:33;98130.66;;;17.40;40.87
78717;BME280;68045;50.042;14.432;2023-12-29T10:32:35;98128.69;;;17.56;40.57
78717;BME280;68045;50.042;14.432;2023-12-29T10:36:47;98137.50;;;17.12;40.74
78717;BME280;68045;50.042;14.432;2023-12-29T10:40:50;98131.94;;;16.13;43.35
78717;BME280;68045;50.042;14.432;2023-12-29T10:45:09;98102.09;;;15.04;45.21
78717;BME280;68045;50.042;14.432;2023-12-29T10:49:13;98104.50;;;14.38;47.21
78717;BME280;68045;50.042;14.432;2023-12-29T10:53:16;98122.25;;;14.80;46.71
78717;BME280;68045;50.042;14.432;2023-12-29T10:57:39;98097.59;;;13.95;48.89
78717;BME280;68045;50.042;14.432;2023-12-29T11:01:41;98099.63;;;13.78;49.33
78717;BME280;68045;50.042;14.432;2023-12-29T11:05:42;98106.94;;;13.97;48.97
78717;BME280;68045;50.042;14.432;2023-12-29T11:09:44;98095.47;;;13.92;48.76
78717;BME280;68045;50.042;14.432;2023-12-29T11:13:46;98074.91;;;13.72;49.32
78717;BME280;68045;50.042;14.432;2023-12-29T11:17:49;98080.19;;;13.35;49.61
78717;BME280;68045;50.042;14.432;2023-12-29T11:21:51;98078.00;;;14.01;48.38
78717;BME280;68045;50.042;14.432;2023-12-29T11:25:56;98070.25;;;13.89;49.18
78717;BME280;68045;50.042;14.432;2023-12-29T11:30:00;98072.63;;;14.33;47.28
78717;BME280;68045;50.042;14.432;2023-12-29T11:34:10;98084.69;;;14.09;47.32
78717;BME280;68045;50.042;14.432;2023-12-29T11:38:29;98093.16;;;13.63;48.25
78717;BME280;68045;50.042;14.432;2023-12-29T11:42:39;98066.38;;;13.65;48.51
78717;BME280;68045;50.042;14.432;2023-12-29T11:46:44;98052.13;;;13.76;48.29
78717;BME280;68045;50.042;14.432;2023-12-29T11:50:45;98052.53;;;14.00;47.94
78717;BME280;68045;50.042;14.432;2023-12-29T11:54:46;98065.34;;;14.13;47.85
78717;BME280;68045;50.042;14.432;2023-12-29T11:58:47;98062.28;;;14.42;47.59
78717;BME280;68045;50.042;14.432;2023-12-29T12:02:49;98032.25;;;14.31;47.81
78717;BME280;68045;50.042;14.432;2023-12-29T12:06:52;98038.94;;;14.39;48.43
78717;BME280;68045;50.042;14.432;2023-12-29T12:10:57;98043.81;;;14.62;47.74
78717;BME280;68045;50.042;14.432;2023-12-29T12:14:58;98025.47;;;14.66;47.92
78717;BME280;68045;50.042;14.432;2023-12-29T12:18:59;98048.75;;;14.38;47.82
78717;BME280;68045;50.042;14.432;2023-12-29T12:23:11;98033.94;;;14.57;47.79
78717;BME280;68045;50.042;14.432;2023-12-29T12:27:15;98052.03;;;14.66;46.95
78717;BME280;68045;50.042;14.432;2023-12-29T12:31:16;98023.31;;;14.47;47.13
78717;BME280;68045;50.042;14.432;2023-12-29T12:35:20;98020.75;;;14.10;48.02
78717;BME280;68045;50.042;14.432;2023-12-29T12:39:20;98006.03;;;14.50;46.91
78717;BME280;68045;50.042;14.432;2023-12-29T12:43:23;98018.88;;;14.73;46.05
78717;BME280;68045;50.042;14.432;2023-12-29T12:47:31;98006.25;;;14.43;46.39
78717;BME280;68045;50.042;14.432;2023-12-29T12:51:34;98013.69;;;14.36;46.92
78717;BME280;68045;50.042;14.432;2023-12-29T12:55:35;97991.84;;;14.19;47.28
78717;BME280;68045;50.042;14.432;2023-12-29T12:59:36;98016.41;;;13.89;48.25
78717;BME280;68045;50.042;14.432;2023-12-29T13:03:38;98034.53;;;13.65;48.16
78717;BME280;68045;50.042;14.432;2023-12-29T13:07:40;98021.75;;;13.57;48.92
78717;BME280;68045;50.042;14.432;2023-12-29T13:11:41;98038.47;;;13.57;49.31
78717;BME280;68045;50.042;14.432;2023-12-29T13:15:56;98023.13;;;13.27;49.85
78717;BME280;68045;50.042;14.432;2023-12-29T13:19:57;98019.72;;;13.32;49.48
78717;BME280;68045;50.042;14.432;2023-12-29T13:24:03;98007.03;;;13.34;50.00
78717;BME280;68045;50.042;14.432;2023-12-29T13:28:06;98003.81;;;13.32;49.13
78717;BME280;68045;50.042;14.432;2023-12-29T13:32:17;98000.03;;;13.60;49.04
78717;BME280;68045;50.042;14.432;2023-12-29T13:40:43;97996.34;;;13.61;49.64
78717;BME280;68045;50.042;14.432;2023-12-29T13:44:46;98025.00;;;13.32;50.10
78717;BME280;68045;50.042;14.432;2023-12-29T13:48:48;97978.03;;;13.22;50.72
78717;BME280;68045;50.042;14.432;2023-12-29T13:52:51;97976.34;;;13.11;51.41
78717;BME280;68045;50.042;14.432;2023-12-29T13:56:53;97999.94;;;13.12;51.56
78717;BME280;68045;50.042;14.432;2023-12-29T14:00:56;98011.75;;;13.00;52.04
78717;BME280;68045;50.042;14.432;2023-12-29T14:09:25;98014.97;;;13.07;52.42
78717;BME280;68045;50.042;14.432;2023-12-29T14:13:26;98014.13;;;13.01;52.91
78717;BME280;68045;50.042;14.432;2023-12-29T14:17:30;98005.66;;;12.99;53.35
78717;BME280;68045;50.042;14.432;2023-12-29T14:21:32;97999.50;;;12.93;53.74
78717;BME280;68045;50.042;14.432;2023-12-29T14:25:36;98044.22;;;12.63;54.60
78717;BME280;68045;50.042;14.432;2023-12-29T14:29:43;98030.41;;;12.83;54.72
78717;BME280;68045;50.042;14.432;2023-12-29T14:33:45;98022.53;;;12.66;55.62
78717;BME280;68045;50.042;14.432;2023-12-29T14:37:46;98029.00;;;12.53;56.38
78717;BME280;68045;50.042;14.432;2023-12-29T14:41:48;97999.56;;;12.72;55.92
78717;BME280;68045;50.042;14.432;2023-12-29T14:45:49;98013.88;;;12.49;56.69
78717;BME280;68045;50.042;14.432;2023-12-29T14:49:53;98023.72;;;12.53;56.91
78717;BME280;68045;50.042;14.432;2023-12-29T14:53:55;98024.31;;;12.33;57.40
78717;BME280;68045;50.042;14.432;2023-12-29T14:57:56;98011.75;;;12.24;58.03
78717;BME280;68045;50.042;14.432;2023-12-29T15:01:57;98020.91;;;12.16;58.20
78717;BME280;68045;50.042;14.432;2023-12-29T15:05:59;98039.44;;;12.16;58.62
78717;BME280;68045;50.042;14.432;2023-12-29T15:10:00;98031.56;;;11.99;58.56
78717;BME280;68045;50.042;14.432;2023-12-29T15:14:02;98033.41;;;11.99;58.60
78717;BME280;68045;50.042;14.432;2023-12-29T15:18:04;98045.06;;;12.03;58.98
78717;BME280;68045;50.042;14.432;2023-12-29T15:22:08;98039.97;;;11.96;59.10
78717;BME280;68045;50.042;14.432;2023-12-29T15:26:13;98025.13;;;11.95;58.84
78717;BME280;68045;50.042;14.432;2023-12-29T15:30:15;98018.25;;;11.94;58.59
78717;BME280;68045;50.042;14.432;2023-12-29T15:34:18;98015.28;;;11.91;59.45
78717;BME280;68045;50.042;14.432;2023-12-29T15:38:18;98021.19;;;11.98;58.73
78717;BME280;68045;50.042;14.432;2023-12-29T15:42:20;98010.75;;;11.86;59.20
78717;BME280;68045;50.042;14.432;2023-12-29T15:46:25;98020.28;;;11.87;59.49
78717;BME280;68045;50.042;14.432;2023-12-29T15:50:27;98019.94;;;11.83;59.19
78717;BME280;68045;50.042;14.432;2023-12-29T15:54:28;98012.19;;;11.77;59.29
78717;BME280;68045;50.042;14.432;2023-12-29T15:58:29;98014.59;;;11.78;58.99
78717;BME280;68045;50.042;14.432;2023-12-29T16:02:33;98016.44;;;11.78;59.60
78717;BME280;68045;50.042;14.432;2023-12-29T16:06:34;98035.09;;;11.71;59.07
78717;BME280;68045;50.042;14.432;2023-12-29T16:10:41;98016.91;;;11.75;59.63
78717;BME280;68045;50.042;14.432;2023-12-29T16:14:43;98006.56;;;11.73;60.16
78717;BME280;68045;50.042;14.432;2023-12-29T16:18:44;98014.41;;;11.68;60.49
78717;BME280;68045;50.042;14.432;2023-12-29T16:22:45;98021.47;;;11.63;60.78
78717;BME280;68045;50.042;14.432;2023-12-29T16:26:47;98013.06;;;11.66;60.93
78717;BME280;68045;50.042;14.432;2023-12-29T16:30:49;98019.31;;;11.60;61.08
78717;BME280;68045;50.042;14.432;2023-12-29T16:34:52;98021.97;;;11.60;61.04
78717;BME280;68045;50.042;14.432;2023-12-29T16:38:54;98032.28;;;11.61;60.17
78717;BME280;68045;50.042;14.432;2023-12-29T16:42:56;98035.91;;;11.72;60.19
78717;BME280;68045;50.042;14.432;2023-12-29T16:46:58;98026.84;;;11.68;59.82
78717;BME280;68045;50.042;14.432;2023-12-29T16:50:59;98010.00;;;11.74;60.72
78717;BME280;68045;50.042;14.432;2023-12-29T16:55:01;98009.31;;;11.62;60.63
78717;BME280;68045;50.042;14.432;2023-12-29T16:59:02;98007.44;;;11.79;60.62
78717;BME280;68045;50.042;14.432;2023-12-29T17:03:05;97991.03;;;11.60;60.99
78717;BME280;68045;50.042;14.432;2023-12-29T17:07:06;97987.53;;;11.54;60.70
78717;BME280;68045;50.042;14.432;2023-12-29T17:11:10;97986.47;;;11.55;60.99
78717;BME280;68045;50.042;14.432;2023-12-29T17:15:12;97986.44;;;11.50;61.25
78717;BME280;68045;50.042;14.432;2023-12-29T17:19:14;97998.34;;;11.53;61.20
78717;BME280;68045;50.042;14.432;2023-12-29T17:23:15;97979.06;;;11.52;60.97
78717;BME280;68045;50.042;14.432;2023-12-29T17:27:16;98001.06;;;11.41;61.22
78717;BME280;68045;50.042;14.432;2023-12-29T17:31:17;97979.53;;;11.49;61.01
78717;BME280;68045;50.042;14.432;2023-12-29T17:35:18;97973.25;;;11.55;60.29
78717;BME280;68045;50.042;14.432;2023-12-29T17:39:24;97974.34;;;11.38;61.46
78717;BME280;68045;50.042;14.432;2023-12-29T17:43:27;97981.88;;;11.29;61.27
78717;BME280;68045;50.042;14.432;2023-12-29T17:47:28;97975.97;;;11.22;61.25
78717;BME280;68045;50.042;14.432;2023-12-29T17:51:29;97966.59;;;11.31;61.14
78717;BME280;68045;50.042;14.432;2023-12-29T17:55:31;97985.06;;;11.31;61.33
78717;BME280;68045;50.042;14.432;2023-12-29T17:59:33;97984.59;;;11.34;60.87
78717;BME280;68045;50.042;14.432;2023-12-29T18:03:34;97988.59;;;11.37;61.00
78717;BME280;68045;50.042;14.432;2023-12-29T18:07:35;97983.56;;;11.35;60.47
78717;BME280;68045;50.042;14.432;2023-12-29T18:11:36;97975.22;;;11.43;60.39
78717;BME280;68045;50.042;14.432;2023-12-29T18:15:38;97967.34;;;11.48;60.27
78717;BME280;68045;50.042;14.432;2023-12-29T18:19:41;97973.06;;;11.40;60.89
78717;BME280;68045;50.042;14.432;2023-12-29T18:23:43;97981.94;;;11.34;60.67
78717;BME280;68045;50.042;14.432;2023-12-29T18:27:45;97987.00;;;11.36;60.79
78717;BME280;68045;50.042;14.432;2023-12-29T18:31:47;97983.88;;;11.39;60.39
78717;BME280;68045;50.042;14.432;2023-12-29T18:35:47;97993.41;;;11.40;60.08
78717;BME280;68045;50.042;14.432;2023-12-29T18:39:49;97984.84;;;11.33;60.00
78717;BME280;68045;50.042;14.432;2023-12-29T18:43:51;97984.75;;;11.44;59.93
78717;BME280;68045;50.042;14.432;2023-12-29T18:47:51;97980.75;;;11.42;59.66
78717;BME280;68045;50.042;14.432;2023-12-29T18:51:52;97981.94;;;11.34;59.65
78717;BME280;68045;50.042;14.432;2023-12-29T18:55:57;97972.19;;;11.18;59.81
78717;BME280;68045;50.042;14.432;2023-12-29T18:59:59;97966.91;;;11.18;60.53
78717;BME280;68045;50.042;14.432;2023-12-29T19:04:02;97967.63;;;11.30;60.15
78717;BME280;68045;50.042;14.432;2023-12-29T19:08:03;97955.28;;;11.19;59.69
78717;BME280;68045;50.042;14.432;2023-12-29T19:12:06;97947.75;;;11.27;59.63
78717;BME280;68045;50.042;14.432;2023-12-29T19:16:07;97954.88;;;11.27;59.50
78717;BME280;68045;50.042;14.432;2023-12-29T19:20:11;97963.38;;;11.29;59.60
78717;BME280;68045;50.042;14.432;2023-12-29T19:24:13;97959.84;;;11.40;59.34
78717;BME280;68045;50.042;14.432;2023-12-29T19:28:14;97960.59;;;11.36;59.11
78717;BME280;68045;50.042;14.432;2023-12-29T19:32:15;97977.28;;;11.41;59.34
78717;BME280;68045;50.042;14.432;2023-12-29T19:36:18;97975.47;;;11.42;59.14
78717;BME280;68045;50.042;14.432;2023-12-29T19:40:19;97985.31;;;11.30;59.48
78717;BME280;68045;50.042;14.432;2023-12-29T19:44:21;97984.13;;;11.37;59.83
78717;BME280;68045;50.042;14.432;2023-12-29T19:48:23;97986.13;;;11.30;60.15
78717;BME280;68045;50.042;14.432;2023-12-29T19:52:24;97977.69;;;11.33;59.15
78717;BME280;68045;50.042;14.432;2023-12-29T19:56:28;97981.72;;;11.36;59.61
78717;BME280;68045;50.042;14.432;2023-12-29T20:00:30;97977.19;;;11.53;59.12
78717;BME280;68045;50.042;14.432;2023-12-29T20:04:32;97957.41;;;11.55;58.33
78717;BME280;68045;50.042;14.432;2023-12-29T20:08:33;97958.34;;;11.66;58.94
78717;BME280;68045;50.042;14.432;2023-12-29T20:12:35;97959.25;;;11.55;59.25
78717;BME280;68045;50.042;14.432;2023-12-29T20:16:36;97944.41;;;11.71;58.35
78717;BME280;68045;50.042;14.432;2023-12-29T20:20:37;97942.38;;;11.56;58.76
78717;BME280;68045;50.042;14.432;2023-12-29T20:24:41;97941.16;;;11.47;59.38
78717;BME280;68045;50.042;14.432;2023-12-29T20:28:44;97957.34;;;11.50;59.30
78717;BME280;68045;50.042;14.432;2023-12-29T20:32:45;97940.44;;;11.51;59.26
78717;BME280;68045;50.042;14.432;2023-12-29T20:36:46;97936.75;;;11.52;59.48
78717;BME280;68045;50.042;14.432;2023-12-29T20:40:49;97962.88;;;11.49;59.40
78717;BME280;68045;50.042;14.432;2023-12-29T20:44:50;97951.91;;;11.57;59.63
78717;BME280;68045;50.042;14.432;2023-12-29T20:48:52;97939.66;;;11.34;60.32
78717;BME280;68045;50.042;14.432;2023-12-29T20:52:53;97941.13;;;11.42;60.11
78717;BME280;68045;50.042;14.432;2023-12-29T20:56:56;97935.50;;;11.38;60.13
78717;BME280;68045;50.042;14.432;2023-12-29T21:00:56;97931.41;;;11.47;59.49
78717;BME280;68045;50.042;14.432;2023-12-29T21:04:57;97942.53;;;11.49;59.66
78717;BME280;68045;50.042;14.432;2023-12-29T21:08:58;97922.50;;;11.53;59.30
78717;BME280;68045;50.042;14.432;2023-12-29T21:12:59;97939.41;;;11.52;59.47
78717;BME280;68045;50.042;14.432;2023-12-29T21:17:00;97941.97;;;11.47;59.11
78717;BME280;68045;50.042;14.432;2023-12-29T21:21:04;97950.06;;;11.41;59.73